Sunkist, California
Current Conditions -  °F | °C
As of 7:53 AM on Thursday 30 Oct 2014 (Local Time) from KFUL Reporting Station
Clear Clear  
Wind Chill: 16°   Ceiling: Unl
Heat Index: 16°   Visibility: 10mi
Dew Point: 13°   Wind: 3mph
Humidity: 83%   Direction: 140°SE
Pressure: 29.97"   Gusts: NA
Location:  33.8393°N, 117.87°W
Report Text: KFUL 301453Z 14003KT 10SM CLR 16/13 A2997 RMK AO2 SLP147 T01560128 55000
Loading
Personal Weather Stations






























Interactive Weather Map
Tropical Storm Tracking
New forecast layout! Learn more

10-Day Weather Forecast

Advertisements
Track Severe Weather on mobile